sensor_id;sensor_type;location;lat;lon;timestamp;P1;durP1;ratioP1;P2;durP2;ratioP2
42104;SDS011;61464;51.472;5.712;2022-08-19T00:00:35;21.08;;;17.60;;
42104;SDS011;61464;51.472;5.712;2022-08-19T00:03:03;24.40;;;19.23;;
42104;SDS011;61464;51.472;5.712;2022-08-19T00:05:30;26.52;;;19.00;;
42104;SDS011;61464;51.472;5.712;2022-08-19T00:07:56;22.33;;;18.35;;
42104;SDS011;61464;51.472;5.712;2022-08-19T00:10:22;25.15;;;19.17;;
42104;SDS011;61464;51.472;5.712;2022-08-19T00:12:49;24.17;;;20.38;;
42104;SDS011;61464;51.472;5.712;2022-08-19T00:15:17;26.67;;;20.52;;
42104;SDS011;61464;51.472;5.712;2022-08-19T00:17:45;24.98;;;19.67;;
42104;SDS011;61464;51.472;5.712;2022-08-19T00:20:12;26.95;;;19.55;;
42104;SDS011;61464;51.472;5.712;2022-08-19T00:22:42;23.70;;;20.42;;
42104;SDS011;61464;51.472;5.712;2022-08-19T00:25:10;24.52;;;20.05;;
42104;SDS011;61464;51.472;5.712;2022-08-19T00:27:36;26.90;;;21.23;;
42104;SDS011;61464;51.472;5.712;2022-08-19T00:30:04;26.45;;;20.85;;
42104;SDS011;61464;51.472;5.712;2022-08-19T00:32:32;21.77;;;18.65;;
42104;SDS011;61464;51.472;5.712;2022-08-19T00:34:59;23.25;;;19.80;;
42104;SDS011;61464;51.472;5.712;2022-08-19T00:37:25;23.95;;;19.70;;
42104;SDS011;61464;51.472;5.712;2022-08-19T00:39:51;26.63;;;20.33;;
42104;SDS011;61464;51.472;5.712;2022-08-19T00:42:18;24.10;;;20.65;;
42104;SDS011;61464;51.472;5.712;2022-08-19T00:44:45;25.45;;;20.80;;
42104;SDS011;61464;51.472;5.712;2022-08-19T00:47:12;30.65;;;22.00;;
42104;SDS011;61464;51.472;5.712;2022-08-19T00:49:43;29.38;;;21.20;;
42104;SDS011;61464;51.472;5.712;2022-08-19T00:52:25;28.88;;;22.33;;
42104;SDS011;61464;51.472;5.712;2022-08-19T00:55:03;30.70;;;22.88;;
42104;SDS011;61464;51.472;5.712;2022-08-19T00:57:36;30.85;;;24.00;;
42104;SDS011;61464;51.472;5.712;2022-08-19T01:00:07;27.92;;;21.10;;
42104;SDS011;61464;51.472;5.712;2022-08-19T01:02:37;24.70;;;20.10;;
42104;SDS011;61464;51.472;5.712;2022-08-19T01:05:06;26.33;;;20.13;;
42104;SDS011;61464;51.472;5.712;2022-08-19T01:07:40;28.98;;;21.40;;
42104;SDS011;61464;51.472;5.712;2022-08-19T01:10:08;27.17;;;20.73;;
42104;SDS011;61464;51.472;5.712;2022-08-19T01:12:43;27.20;;;21.23;;
42104;SDS011;61464;51.472;5.712;2022-08-19T01:15:12;24.02;;;20.27;;
42104;SDS011;61464;51.472;5.712;2022-08-19T01:17:43;24.20;;;19.95;;
42104;SDS011;61464;51.472;5.712;2022-08-19T01:20:16;25.73;;;20.55;;
42104;SDS011;61464;51.472;5.712;2022-08-19T01:25:18;28.88;;;20.88;;
42104;SDS011;61464;51.472;5.712;2022-08-19T01:27:50;30.52;;;22.27;;
42104;SDS011;61464;51.472;5.712;2022-08-19T01:30:28;29.45;;;22.55;;
42104;SDS011;61464;51.472;5.712;2022-08-19T01:32:57;30.30;;;23.80;;
42104;SDS011;61464;51.472;5.712;2022-08-19T01:35:25;30.95;;;21.98;;
42104;SDS011;61464;51.472;5.712;2022-08-19T01:38:05;29.95;;;22.80;;
42104;SDS011;61464;51.472;5.712;2022-08-19T01:40:36;29.98;;;22.90;;
42104;SDS011;61464;51.472;5.712;2022-08-19T01:43:05;30.33;;;22.17;;
42104;SDS011;61464;51.472;5.712;2022-08-19T01:45:31;26.20;;;21.92;;
42104;SDS011;61464;51.472;5.712;2022-08-19T01:47:59;26.80;;;21.67;;
42104;SDS011;61464;51.472;5.712;2022-08-19T01:50:28;31.73;;;23.48;;
42104;SDS011;61464;51.472;5.712;2022-08-19T01:52:55;32.38;;;22.42;;
42104;SDS011;61464;51.472;5.712;2022-08-19T01:55:21;27.27;;;20.40;;
42104;SDS011;61464;51.472;5.712;2022-08-19T01:57:50;30.10;;;22.52;;
42104;SDS011;61464;51.472;5.712;2022-08-19T02:00:20;29.23;;;22.65;;
42104;SDS011;61464;51.472;5.712;2022-08-19T02:02:49;31.60;;;23.02;;
42104;SDS011;61464;51.472;5.712;2022-08-19T02:05:15;30.92;;;23.10;;
42104;SDS011;61464;51.472;5.712;2022-08-19T02:07:42;31.58;;;22.65;;
42104;SDS011;61464;51.472;5.712;2022-08-19T02:10:12;29.05;;;22.30;;
42104;SDS011;61464;51.472;5.712;2022-08-19T02:12:42;32.92;;;22.95;;
42104;SDS011;61464;51.472;5.712;2022-08-19T02:15:08;36.72;;;24.75;;
42104;SDS011;61464;51.472;5.712;2022-08-19T02:17:35;30.58;;;23.50;;
42104;SDS011;61464;51.472;5.712;2022-08-19T02:20:00;31.02;;;22.52;;
42104;SDS011;61464;51.472;5.712;2022-08-19T02:22:27;31.15;;;22.80;;
42104;SDS011;61464;51.472;5.712;2022-08-19T02:24:53;32.53;;;23.13;;
42104;SDS011;61464;51.472;5.712;2022-08-19T02:27:20;32.05;;;22.77;;
42104;SDS011;61464;51.472;5.712;2022-08-19T02:29:48;30.50;;;22.58;;
42104;SDS011;61464;51.472;5.712;2022-08-19T02:32:15;33.03;;;22.95;;
42104;SDS011;61464;51.472;5.712;2022-08-19T02:34:43;35.67;;;23.65;;
42104;SDS011;61464;51.472;5.712;2022-08-19T02:37:09;35.60;;;24.70;;
42104;SDS011;61464;51.472;5.712;2022-08-19T02:39:55;34.13;;;24.63;;
42104;SDS011;61464;51.472;5.712;2022-08-19T02:42:21;34.10;;;22.45;;
42104;SDS011;61464;51.472;5.712;2022-08-19T02:44:46;30.13;;;22.55;;
42104;SDS011;61464;51.472;5.712;2022-08-19T02:47:12;31.17;;;21.75;;
42104;SDS011;61464;51.472;5.712;2022-08-19T02:49:40;30.75;;;22.17;;
42104;SDS011;61464;51.472;5.712;2022-08-19T02:52:06;32.85;;;22.90;;
42104;SDS011;61464;51.472;5.712;2022-08-19T02:54:33;28.13;;;21.50;;
42104;SDS011;61464;51.472;5.712;2022-08-19T02:56:59;31.20;;;22.33;;
42104;SDS011;61464;51.472;5.712;2022-08-19T02:59:25;32.30;;;22.92;;
42104;SDS011;61464;51.472;5.712;2022-08-19T03:01:51;32.72;;;21.75;;
42104;SDS011;61464;51.472;5.712;2022-08-19T03:04:17;32.25;;;23.20;;
42104;SDS011;61464;51.472;5.712;2022-08-19T03:06:45;39.38;;;24.23;;
42104;SDS011;61464;51.472;5.712;2022-08-19T03:09:12;35.75;;;24.17;;
42104;SDS011;61464;51.472;5.712;2022-08-19T03:11:39;36.15;;;25.08;;
42104;SDS011;61464;51.472;5.712;2022-08-19T03:14:06;40.63;;;26.75;;
42104;SDS011;61464;51.472;5.712;2022-08-19T03:16:34;38.60;;;25.92;;
42104;SDS011;61464;51.472;5.712;2022-08-19T03:19:10;39.72;;;26.58;;
42104;SDS011;61464;51.472;5.712;2022-08-19T03:21:37;39.70;;;27.92;;
42104;SDS011;61464;51.472;5.712;2022-08-19T03:24:05;44.55;;;28.40;;
42104;SDS011;61464;51.472;5.712;2022-08-19T03:26:34;43.67;;;28.65;;
42104;SDS011;61464;51.472;5.712;2022-08-19T03:31:36;37.25;;;25.17;;
42104;SDS011;61464;51.472;5.712;2022-08-19T03:34:03;35.65;;;24.00;;
42104;SDS011;61464;51.472;5.712;2022-08-19T03:36:29;33.20;;;23.13;;
42104;SDS011;61464;51.472;5.712;2022-08-19T03:38:57;34.17;;;23.60;;
42104;SDS011;61464;51.472;5.712;2022-08-19T03:41:27;32.22;;;22.33;;
42104;SDS011;61464;51.472;5.712;2022-08-19T03:44:01;32.30;;;23.75;;
42104;SDS011;61464;51.472;5.712;2022-08-19T03:46:30;36.75;;;23.42;;
42104;SDS011;61464;51.472;5.712;2022-08-19T03:48:58;39.22;;;24.65;;
42104;SDS011;61464;51.472;5.712;2022-08-19T03:51:29;43.20;;;26.60;;
42104;SDS011;61464;51.472;5.712;2022-08-19T03:54:00;36.92;;;25.77;;
42104;SDS011;61464;51.472;5.712;2022-08-19T03:56:30;35.28;;;23.90;;
42104;SDS011;61464;51.472;5.712;2022-08-19T03:58:58;38.95;;;25.20;;
42104;SDS011;61464;51.472;5.712;2022-08-19T04:01:25;40.88;;;26.27;;
42104;SDS011;61464;51.472;5.712;2022-08-19T04:03:53;37.50;;;25.88;;
42104;SDS011;61464;51.472;5.712;2022-08-19T04:06:28;38.00;;;24.88;;
42104;SDS011;61464;51.472;5.712;2022-08-19T04:08:59;38.20;;;26.60;;
42104;SDS011;61464;51.472;5.712;2022-08-19T04:11:31;36.85;;;24.90;;
42104;SDS011;61464;51.472;5.712;2022-08-19T04:14:07;41.00;;;27.00;;
42104;SDS011;61464;51.472;5.712;2022-08-19T04:16:39;43.65;;;28.02;;
42104;SDS011;61464;51.472;5.712;2022-08-19T04:19:05;46.40;;;26.83;;
42104;SDS011;61464;51.472;5.712;2022-08-19T04:21:32;44.97;;;28.92;;
42104;SDS011;61464;51.472;5.712;2022-08-19T04:23:59;52.67;;;30.33;;
42104;SDS011;61464;51.472;5.712;2022-08-19T04:26:30;47.75;;;29.95;;
42104;SDS011;61464;51.472;5.712;2022-08-19T04:29:00;47.00;;;31.40;;
42104;SDS011;61464;51.472;5.712;2022-08-19T04:31:33;50.00;;;30.25;;
42104;SDS011;61464;51.472;5.712;2022-08-19T04:34:00;46.10;;;29.65;;
42104;SDS011;61464;51.472;5.712;2022-08-19T04:36:30;49.65;;;29.70;;
42104;SDS011;61464;51.472;5.712;2022-08-19T04:39:01;48.88;;;28.73;;
42104;SDS011;61464;51.472;5.712;2022-08-19T04:41:35;47.25;;;28.92;;
42104;SDS011;61464;51.472;5.712;2022-08-19T04:46:47;45.35;;;29.02;;
42104;SDS011;61464;51.472;5.712;2022-08-19T04:49:15;44.22;;;28.02;;
42104;SDS011;61464;51.472;5.712;2022-08-19T04:51:44;42.65;;;26.80;;
42104;SDS011;61464;51.472;5.712;2022-08-19T04:54:15;43.60;;;27.73;;
42104;SDS011;61464;51.472;5.712;2022-08-19T04:56:42;44.35;;;28.30;;
42104;SDS011;61464;51.472;5.712;2022-08-19T04:59:08;50.10;;;30.65;;
42104;SDS011;61464;51.472;5.712;2022-08-19T05:01:35;47.42;;;28.02;;
42104;SDS011;61464;51.472;5.712;2022-08-19T05:04:04;51.72;;;32.13;;
42104;SDS011;61464;51.472;5.712;2022-08-19T05:06:31;48.00;;;28.98;;
42104;SDS011;61464;51.472;5.712;2022-08-19T05:08:59;54.22;;;31.88;;
42104;SDS011;61464;51.472;5.712;2022-08-19T05:11:29;44.90;;;29.88;;
42104;SDS011;61464;51.472;5.712;2022-08-19T05:14:04;50.15;;;29.58;;
42104;SDS011;61464;51.472;5.712;2022-08-19T05:16:31;47.47;;;30.42;;
42104;SDS011;61464;51.472;5.712;2022-08-19T05:18:57;51.80;;;30.45;;
42104;SDS011;61464;51.472;5.712;2022-08-19T05:21:42;51.28;;;31.10;;
42104;SDS011;61464;51.472;5.712;2022-08-19T05:24:27;50.20;;;30.75;;
42104;SDS011;61464;51.472;5.712;2022-08-19T05:26:55;47.47;;;31.00;;
42104;SDS011;61464;51.472;5.712;2022-08-19T05:29:22;46.72;;;30.83;;
42104;SDS011;61464;51.472;5.712;2022-08-19T05:31:50;46.60;;;31.63;;
42104;SDS011;61464;51.472;5.712;2022-08-19T05:34:18;52.40;;;32.58;;
42104;SDS011;61464;51.472;5.712;2022-08-19T05:36:51;60.38;;;34.60;;
42104;SDS011;61464;51.472;5.712;2022-08-19T05:39:23;60.58;;;38.05;;
42104;SDS011;61464;51.472;5.712;2022-08-19T05:41:58;74.15;;;47.65;;
42104;SDS011;61464;51.472;5.712;2022-08-19T05:44:29;78.97;;;49.53;;
42104;SDS011;61464;51.472;5.712;2022-08-19T05:46:58;85.03;;;51.28;;
42104;SDS011;61464;51.472;5.712;2022-08-19T05:49:27;85.10;;;49.88;;
42104;SDS011;61464;51.472;5.712;2022-08-19T05:51:54;87.57;;;51.17;;
42104;SDS011;61464;51.472;5.712;2022-08-19T05:54:22;81.15;;;47.45;;
42104;SDS011;61464;51.472;5.712;2022-08-19T05:56:49;77.05;;;47.67;;
42104;SDS011;61464;51.472;5.712;2022-08-19T05:59:17;80.53;;;46.17;;
42104;SDS011;61464;51.472;5.712;2022-08-19T06:01:46;79.03;;;45.67;;
42104;SDS011;61464;51.472;5.712;2022-08-19T06:04:19;78.63;;;45.30;;
42104;SDS011;61464;51.472;5.712;2022-08-19T06:06:47;84.68;;;46.60;;
42104;SDS011;61464;51.472;5.712;2022-08-19T06:09:16;78.70;;;44.97;;
42104;SDS011;61464;51.472;5.712;2022-08-19T06:11:45;79.00;;;44.28;;
42104;SDS011;61464;51.472;5.712;2022-08-19T06:14:15;71.20;;;39.85;;
42104;SDS011;61464;51.472;5.712;2022-08-19T06:16:44;69.57;;;39.28;;
42104;SDS011;61464;51.472;5.712;2022-08-19T06:19:12;68.45;;;36.22;;
42104;SDS011;61464;51.472;5.712;2022-08-19T06:21:41;60.55;;;29.52;;
42104;SDS011;61464;51.472;5.712;2022-08-19T06:24:12;56.60;;;29.17;;
42104;SDS011;61464;51.472;5.712;2022-08-19T06:26:42;53.03;;;25.52;;
42104;SDS011;61464;51.472;5.712;2022-08-19T06:29:12;60.38;;;27.48;;
42104;SDS011;61464;51.472;5.712;2022-08-19T06:31:41;54.33;;;27.15;;
42104;SDS011;61464;51.472;5.712;2022-08-19T06:34:10;54.40;;;25.35;;
42104;SDS011;61464;51.472;5.712;2022-08-19T06:36:41;56.13;;;26.10;;
42104;SDS011;61464;51.472;5.712;2022-08-19T06:39:11;56.72;;;28.48;;
42104;SDS011;61464;51.472;5.712;2022-08-19T06:41:50;55.38;;;27.13;;
42104;SDS011;61464;51.472;5.712;2022-08-19T06:44:20;57.92;;;28.92;;
42104;SDS011;61464;51.472;5.712;2022-08-19T06:46:50;61.63;;;29.67;;
42104;SDS011;61464;51.472;5.712;2022-08-19T06:49:18;68.68;;;30.63;;
42104;SDS011;61464;51.472;5.712;2022-08-19T06:51:44;60.42;;;29.63;;
42104;SDS011;61464;51.472;5.712;2022-08-19T06:54:13;62.75;;;30.63;;
42104;SDS011;61464;51.472;5.712;2022-08-19T06:56:40;55.60;;;28.77;;
42104;SDS011;61464;51.472;5.712;2022-08-19T06:59:12;55.75;;;27.20;;
42104;SDS011;61464;51.472;5.712;2022-08-19T07:01:52;54.30;;;28.10;;
42104;SDS011;61464;51.472;5.712;2022-08-19T07:04:27;66.07;;;35.58;;
42104;SDS011;61464;51.472;5.712;2022-08-19T07:07:00;62.58;;;34.03;;
42104;SDS011;61464;51.472;5.712;2022-08-19T07:09:33;59.00;;;35.10;;
42104;SDS011;61464;51.472;5.712;2022-08-19T07:12:02;62.97;;;36.35;;
42104;SDS011;61464;51.472;5.712;2022-08-19T07:14:30;55.75;;;31.40;;
42104;SDS011;61464;51.472;5.712;2022-08-19T07:16:56;47.38;;;27.17;;
42104;SDS011;61464;51.472;5.712;2022-08-19T07:19:23;54.85;;;28.50;;
42104;SDS011;61464;51.472;5.712;2022-08-19T07:21:52;53.22;;;30.10;;
42104;SDS011;61464;51.472;5.712;2022-08-19T07:24:20;54.83;;;31.98;;
42104;SDS011;61464;51.472;5.712;2022-08-19T07:26:51;54.08;;;29.65;;
42104;SDS011;61464;51.472;5.712;2022-08-19T07:29:19;53.33;;;30.60;;
42104;SDS011;61464;51.472;5.712;2022-08-19T07:31:48;55.15;;;31.45;;
42104;SDS011;61464;51.472;5.712;2022-08-19T07:34:15;56.97;;;30.67;;
42104;SDS011;61464;51.472;5.712;2022-08-19T07:36:42;51.65;;;29.88;;
42104;SDS011;61464;51.472;5.712;2022-08-19T07:39:11;48.65;;;29.95;;
42104;SDS011;61464;51.472;5.712;2022-08-19T07:41:42;48.78;;;28.25;;
42104;SDS011;61464;51.472;5.712;2022-08-19T07:44:09;50.70;;;29.63;;
42104;SDS011;61464;51.472;5.712;2022-08-19T07:46:37;51.85;;;29.38;;
42104;SDS011;61464;51.472;5.712;2022-08-19T07:49:11;49.88;;;27.70;;
42104;SDS011;61464;51.472;5.712;2022-08-19T07:51:45;48.97;;;29.08;;
42104;SDS011;61464;51.472;5.712;2022-08-19T07:54:22;50.28;;;27.88;;
42104;SDS011;61464;51.472;5.712;2022-08-19T07:56:50;54.40;;;29.00;;
42104;SDS011;61464;51.472;5.712;2022-08-19T07:59:18;46.88;;;26.83;;
42104;SDS011;61464;51.472;5.712;2022-08-19T08:01:45;45.75;;;26.85;;
42104;SDS011;61464;51.472;5.712;2022-08-19T08:04:12;43.45;;;25.88;;
42104;SDS011;61464;51.472;5.712;2022-08-19T08:06:57;49.45;;;26.10;;
42104;SDS011;61464;51.472;5.712;2022-08-19T08:09:42;42.50;;;25.23;;
42104;SDS011;61464;51.472;5.712;2022-08-19T08:12:30;41.67;;;26.15;;
42104;SDS011;61464;51.472;5.712;2022-08-19T08:15:07;48.42;;;25.40;;
42104;SDS011;61464;51.472;5.712;2022-08-19T08:17:41;46.58;;;25.02;;
42104;SDS011;61464;51.472;5.712;2022-08-19T08:20:07;42.90;;;24.20;;
42104;SDS011;61464;51.472;5.712;2022-08-19T08:22:34;37.40;;;23.02;;
42104;SDS011;61464;51.472;5.712;2022-08-19T08:25:23;44.75;;;23.98;;
42104;SDS011;61464;51.472;5.712;2022-08-19T08:27:49;43.05;;;23.08;;
42104;SDS011;61464;51.472;5.712;2022-08-19T08:30:20;32.90;;;21.05;;
42104;SDS011;61464;51.472;5.712;2022-08-19T08:32:49;35.08;;;21.08;;
42104;SDS011;61464;51.472;5.712;2022-08-19T08:35:17;36.33;;;20.88;;
42104;SDS011;61464;51.472;5.712;2022-08-19T08:37:48;32.42;;;19.40;;
42104;SDS011;61464;51.472;5.712;2022-08-19T08:40:22;33.22;;;17.73;;
42104;SDS011;61464;51.472;5.712;2022-08-19T08:42:59;32.88;;;17.73;;
42104;SDS011;61464;51.472;5.712;2022-08-19T08:45:56;31.02;;;17.90;;
42104;SDS011;61464;51.472;5.712;2022-08-19T08:48:44;28.08;;;17.15;;
42104;SDS011;61464;51.472;5.712;2022-08-19T08:51:28;29.00;;;18.05;;
42104;SDS011;61464;51.472;5.712;2022-08-19T08:54:07;34.20;;;17.88;;
42104;SDS011;61464;51.472;5.712;2022-08-19T08:56:38;27.17;;;17.83;;
42104;SDS011;61464;51.472;5.712;2022-08-19T08:59:15;19.20;;;11.77;;
42104;SDS011;61464;51.472;5.712;2022-08-19T09:01:46;24.92;;;14.32;;
42104;SDS011;61464;51.472;5.712;2022-08-19T09:04:13;23.75;;;14.63;;
42104;SDS011;61464;51.472;5.712;2022-08-19T09:09:46;21.38;;;13.57;;
42104;SDS011;61464;51.472;5.712;2022-08-19T09:12:25;20.88;;;14.45;;
42104;SDS011;61464;51.472;5.712;2022-08-19T09:15:29;20.42;;;13.13;;
42104;SDS011;61464;51.472;5.712;2022-08-19T09:18:22;20.30;;;14.80;;
42104;SDS011;61464;51.472;5.712;2022-08-19T09:20:48;25.45;;;14.90;;
42104;SDS011;61464;51.472;5.712;2022-08-19T09:23:14;22.88;;;16.35;;
42104;SDS011;61464;51.472;5.712;2022-08-19T09:25:41;20.88;;;14.07;;
42104;SDS011;61464;51.472;5.712;2022-08-19T09:28:07;21.25;;;14.77;;
42104;SDS011;61464;51.472;5.712;2022-08-19T09:30:34;25.50;;;16.48;;
42104;SDS011;61464;51.472;5.712;2022-08-19T09:33:06;27.10;;;17.08;;
42104;SDS011;61464;51.472;5.712;2022-08-19T09:35:32;30.00;;;17.65;;
42104;SDS011;61464;51.472;5.712;2022-08-19T09:38:00;24.85;;;18.20;;
42104;SDS011;61464;51.472;5.712;2022-08-19T09:40:27;24.40;;;17.38;;
42104;SDS011;61464;51.472;5.712;2022-08-19T09:42:54;26.63;;;16.70;;
42104;SDS011;61464;51.472;5.712;2022-08-19T09:45:22;22.17;;;14.55;;
42104;SDS011;61464;51.472;5.712;2022-08-19T09:47:48;27.25;;;16.35;;
42104;SDS011;61464;51.472;5.712;2022-08-19T09:50:16;21.98;;;16.05;;
42104;SDS011;61464;51.472;5.712;2022-08-19T09:52:43;20.52;;;15.27;;
42104;SDS011;61464;51.472;5.712;2022-08-19T09:55:10;23.98;;;14.50;;
42104;SDS011;61464;51.472;5.712;2022-08-19T09:57:37;26.25;;;20.55;;
42104;SDS011;61464;51.472;5.712;2022-08-19T10:00:04;27.33;;;21.20;;
42104;SDS011;61464;51.472;5.712;2022-08-19T10:02:33;19.48;;;17.30;;
42104;SDS011;61464;51.472;5.712;2022-08-19T10:04:59;25.10;;;16.17;;
42104;SDS011;61464;51.472;5.712;2022-08-19T10:07:44;20.67;;;15.20;;
42104;SDS011;61464;51.472;5.712;2022-08-19T10:10:10;20.92;;;14.73;;
42104;SDS011;61464;51.472;5.712;2022-08-19T10:12:36;20.90;;;14.82;;
42104;SDS011;61464;51.472;5.712;2022-08-19T10:15:02;22.20;;;14.88;;
42104;SDS011;61464;51.472;5.712;2022-08-19T10:17:31;20.30;;;13.27;;
42104;SDS011;61464;51.472;5.712;2022-08-19T10:19:58;19.63;;;14.13;;
42104;SDS011;61464;51.472;5.712;2022-08-19T10:22:24;22.42;;;14.35;;
42104;SDS011;61464;51.472;5.712;2022-08-19T10:24:51;17.90;;;12.95;;
42104;SDS011;61464;51.472;5.712;2022-08-19T10:27:17;22.77;;;14.68;;
42104;SDS011;61464;51.472;5.712;2022-08-19T10:29:43;25.80;;;15.45;;
42104;SDS011;61464;51.472;5.712;2022-08-19T10:32:09;20.90;;;14.85;;
42104;SDS011;61464;51.472;5.712;2022-08-19T10:34:36;23.35;;;13.52;;
42104;SDS011;61464;51.472;5.712;2022-08-19T10:37:03;25.02;;;14.75;;
42104;SDS011;61464;51.472;5.712;2022-08-19T10:39:31;32.70;;;16.90;;
42104;SDS011;61464;51.472;5.712;2022-08-19T10:41:59;25.13;;;15.43;;
42104;SDS011;61464;51.472;5.712;2022-08-19T10:44:28;20.65;;;11.40;;
42104;SDS011;61464;51.472;5.712;2022-08-19T10:46:55;19.20;;;9.70;;
42104;SDS011;61464;51.472;5.712;2022-08-19T10:49:20;16.92;;;9.48;;
42104;SDS011;61464;51.472;5.712;2022-08-19T10:51:49;17.77;;;9.45;;
42104;SDS011;61464;51.472;5.712;2022-08-19T10:54:33;16.70;;;9.05;;
42104;SDS011;61464;51.472;5.712;2022-08-19T10:57:17;18.52;;;9.32;;
42104;SDS011;61464;51.472;5.712;2022-08-19T10:59:43;14.80;;;9.32;;
42104;SDS011;61464;51.472;5.712;2022-08-19T11:02:09;20.08;;;9.18;;
42104;SDS011;61464;51.472;5.712;2022-08-19T11:04:38;15.35;;;7.88;;
42104;SDS011;61464;51.472;5.712;2022-08-19T11:07:05;19.77;;;9.15;;
42104;SDS011;61464;51.472;5.712;2022-08-19T11:09:35;14.85;;;8.27;;
42104;SDS011;61464;51.472;5.712;2022-08-19T11:12:05;14.13;;;8.40;;
42104;SDS011;61464;51.472;5.712;2022-08-19T11:14:32;14.32;;;8.35;;
42104;SDS011;61464;51.472;5.712;2022-08-19T11:16:59;16.52;;;8.27;;
42104;SDS011;61464;51.472;5.712;2022-08-19T11:19:27;13.88;;;7.82;;
42104;SDS011;61464;51.472;5.712;2022-08-19T11:21:53;20.65;;;7.95;;
42104;SDS011;61464;51.472;5.712;2022-08-19T11:24:20;11.60;;;6.70;;
42104;SDS011;61464;51.472;5.712;2022-08-19T11:26:50;14.55;;;6.25;;
42104;SDS011;61464;51.472;5.712;2022-08-19T11:29:19;8.48;;;5.75;;
42104;SDS011;61464;51.472;5.712;2022-08-19T11:31:46;12.02;;;5.97;;
42104;SDS011;61464;51.472;5.712;2022-08-19T11:34:21;10.73;;;5.63;;
42104;SDS011;61464;51.472;5.712;2022-08-19T11:36:50;15.23;;;5.95;;
42104;SDS011;61464;51.472;5.712;2022-08-19T11:39:18;10.07;;;5.50;;
42104;SDS011;61464;51.472;5.712;2022-08-19T11:41:46;11.00;;;5.80;;
42104;SDS011;61464;51.472;5.712;2022-08-19T11:44:13;15.48;;;5.88;;
42104;SDS011;61464;51.472;5.712;2022-08-19T11:46:39;9.57;;;6.10;;
42104;SDS011;61464;51.472;5.712;2022-08-19T11:49:10;14.00;;;6.43;;
42104;SDS011;61464;51.472;5.712;2022-08-19T11:51:37;7.90;;;5.18;;
42104;SDS011;61464;51.472;5.712;2022-08-19T11:54:03;8.70;;;5.47;;
42104;SDS011;61464;51.472;5.712;2022-08-19T11:56:31;11.50;;;5.70;;
42104;SDS011;61464;51.472;5.712;2022-08-19T11:58:57;9.48;;;5.50;;
42104;SDS011;61464;51.472;5.712;2022-08-19T12:01:25;13.15;;;6.95;;
42104;SDS011;61464;51.472;5.712;2022-08-19T12:03:52;13.02;;;6.25;;
42104;SDS011;61464;51.472;5.712;2022-08-19T12:06:20;9.80;;;6.03;;
42104;SDS011;61464;51.472;5.712;2022-08-19T12:08:58;13.75;;;7.63;;
42104;SDS011;61464;51.472;5.712;2022-08-19T12:11:28;12.63;;;7.35;;
42104;SDS011;61464;51.472;5.712;2022-08-19T12:13:54;15.68;;;7.70;;
42104;SDS011;61464;51.472;5.712;2022-08-19T12:16:25;20.15;;;8.68;;
42104;SDS011;61464;51.472;5.712;2022-08-19T12:18:54;12.32;;;7.03;;
42104;SDS011;61464;51.472;5.712;2022-08-19T12:21:22;19.65;;;9.43;;
42104;SDS011;61464;51.472;5.712;2022-08-19T12:23:53;15.65;;;8.55;;
42104;SDS011;61464;51.472;5.712;2022-08-19T12:26:20;24.27;;;9.98;;
42104;SDS011;61464;51.472;5.712;2022-08-19T12:28:46;12.73;;;8.38;;
42104;SDS011;61464;51.472;5.712;2022-08-19T12:31:13;17.88;;;9.80;;
42104;SDS011;61464;51.472;5.712;2022-08-19T12:33:40;18.10;;;8.57;;
42104;SDS011;61464;51.472;5.712;2022-08-19T12:36:08;15.35;;;8.05;;
42104;SDS011;61464;51.472;5.712;2022-08-19T12:38:36;19.67;;;8.65;;
42104;SDS011;61464;51.472;5.712;2022-08-19T12:41:04;19.23;;;9.75;;
42104;SDS011;61464;51.472;5.712;2022-08-19T12:43:34;22.95;;;10.57;;
42104;SDS011;61464;51.472;5.712;2022-08-19T12:46:02;20.23;;;10.05;;
42104;SDS011;61464;51.472;5.712;2022-08-19T12:48:30;22.85;;;15.88;;
42104;SDS011;61464;51.472;5.712;2022-08-19T12:51:05;34.25;;;21.63;;
42104;SDS011;61464;51.472;5.712;2022-08-19T12:53:35;23.08;;;16.23;;
42104;SDS011;61464;51.472;5.712;2022-08-19T12:56:02;30.60;;;19.67;;
42104;SDS011;61464;51.472;5.712;2022-08-19T12:58:28;28.33;;;19.17;;
42104;SDS011;61464;51.472;5.712;2022-08-19T13:00:55;31.13;;;18.55;;
42104;SDS011;61464;51.472;5.712;2022-08-19T13:03:21;28.83;;;20.58;;
42104;SDS011;61464;51.472;5.712;2022-08-19T13:05:54;29.92;;;20.40;;
42104;SDS011;61464;51.472;5.712;2022-08-19T13:08:20;30.08;;;20.02;;
42104;SDS011;61464;51.472;5.712;2022-08-19T13:10:46;27.25;;;17.83;;
42104;SDS011;61464;51.472;5.712;2022-08-19T13:13:12;28.02;;;18.50;;
42104;SDS011;61464;51.472;5.712;2022-08-19T13:15:39;25.48;;;17.35;;
42104;SDS011;61464;51.472;5.712;2022-08-19T13:18:08;33.85;;;20.67;;
42104;SDS011;61464;51.472;5.712;2022-08-19T13:20:35;24.65;;;18.58;;
42104;SDS011;61464;51.472;5.712;2022-08-19T13:23:02;31.55;;;19.00;;
42104;SDS011;61464;51.472;5.712;2022-08-19T13:25:29;26.42;;;19.17;;
42104;SDS011;61464;51.472;5.712;2022-08-19T13:27:55;28.45;;;18.92;;
42104;SDS011;61464;51.472;5.712;2022-08-19T13:30:21;28.05;;;19.65;;
42104;SDS011;61464;51.472;5.712;2022-08-19T13:33:06;29.38;;;18.95;;
42104;SDS011;61464;51.472;5.712;2022-08-19T13:35:40;27.10;;;17.58;;
42104;SDS011;61464;51.472;5.712;2022-08-19T13:38:14;29.88;;;19.00;;
42104;SDS011;61464;51.472;5.712;2022-08-19T13:40:43;24.15;;;16.58;;
42104;SDS011;61464;51.472;5.712;2022-08-19T13:43:09;23.33;;;15.90;;
42104;SDS011;61464;51.472;5.712;2022-08-19T13:45:35;21.40;;;15.68;;
42104;SDS011;61464;51.472;5.712;2022-08-19T13:48:02;24.63;;;16.88;;
42104;SDS011;61464;51.472;5.712;2022-08-19T13:50:33;19.60;;;14.75;;
42104;SDS011;61464;51.472;5.712;2022-08-19T13:53:08;20.98;;;14.50;;
42104;SDS011;61464;51.472;5.712;2022-08-19T13:55:42;20.45;;;15.40;;
42104;SDS011;61464;51.472;5.712;2022-08-19T13:58:09;20.65;;;13.38;;
42104;SDS011;61464;51.472;5.712;2022-08-19T14:00:38;21.42;;;13.77;;
42104;SDS011;61464;51.472;5.712;2022-08-19T14:03:09;15.80;;;11.38;;
42104;SDS011;61464;51.472;5.712;2022-08-19T14:05:36;15.18;;;10.55;;
42104;SDS011;61464;51.472;5.712;2022-08-19T14:08:02;14.40;;;10.20;;
42104;SDS011;61464;51.472;5.712;2022-08-19T14:10:29;12.38;;;9.10;;
42104;SDS011;61464;51.472;5.712;2022-08-19T14:12:57;11.82;;;9.07;;
42104;SDS011;61464;51.472;5.712;2022-08-19T14:15:26;10.05;;;7.63;;
42104;SDS011;61464;51.472;5.712;2022-08-19T14:17:52;11.00;;;8.57;;
42104;SDS011;61464;51.472;5.712;2022-08-19T14:20:19;11.60;;;9.15;;
42104;SDS011;61464;51.472;5.712;2022-08-19T14:22:45;12.35;;;9.07;;
42104;SDS011;61464;51.472;5.712;2022-08-19T14:25:14;13.18;;;9.63;;
42104;SDS011;61464;51.472;5.712;2022-08-19T14:27:46;13.80;;;9.73;;
42104;SDS011;61464;51.472;5.712;2022-08-19T14:30:15;14.13;;;9.88;;
42104;SDS011;61464;51.472;5.712;2022-08-19T14:32:44;12.55;;;8.98;;
42104;SDS011;61464;51.472;5.712;2022-08-19T14:35:11;16.05;;;10.00;;
42104;SDS011;61464;51.472;5.712;2022-08-19T14:37:40;11.05;;;7.90;;
42104;SDS011;61464;51.472;5.712;2022-08-19T14:40:09;13.05;;;9.45;;
42104;SDS011;61464;51.472;5.712;2022-08-19T14:42:36;12.15;;;8.25;;
42104;SDS011;61464;51.472;5.712;2022-08-19T14:45:02;11.43;;;8.25;;
42104;SDS011;61464;51.472;5.712;2022-08-19T14:47:30;9.65;;;7.20;;